createdAt,value
2018-11-20T00:01:58.138Z,29.17
2018-11-20T00:07:20.081Z,28.40
2018-11-20T00:17:54.986Z,24.77
2018-11-20T00:20:41.152Z,25.93
2018-11-20T00:23:32.060Z,29.93
2018-11-20T00:28:55.573Z,28.70
2018-11-20T00:36:52.378Z,29.63
2018-11-20T00:45:10.697Z,30.63
2018-11-20T00:48:01.175Z,27.87
2018-11-20T00:50:49.296Z,31.53
2018-11-20T00:53:15.980Z,26.77
2018-11-20T01:01:11.455Z,32.27
2018-11-20T01:03:58.846Z,31.23
2018-11-20T01:06:37.740Z,32.93
2018-11-20T01:09:27.530Z,28.27
2018-11-20T01:17:04.479Z,28.23
2018-11-20T01:19:45.669Z,27.67
2018-11-20T01:30:03.323Z,29.60
2018-11-20T01:40:50.915Z,28.90
2018-11-20T01:43:50.441Z,28.97
2018-11-20T01:46:54.756Z,32.90
2018-11-20T01:49:38.838Z,36.17
2018-11-20T01:52:24.773Z,29.27
2018-11-20T01:55:27.488Z,27.53
2018-11-20T01:58:08.662Z,32.00
2018-11-20T02:00:55.132Z,29.80
2018-11-20T02:03:48.055Z,33.40
2018-11-20T02:12:00.516Z,27.97
2018-11-20T02:22:42.370Z,35.70
2018-11-20T02:30:52.196Z,43.93
2018-11-20T02:36:12.881Z,29.60
2018-11-20T02:51:56.141Z,29.57
2018-11-20T02:57:27.771Z,32.70
2018-11-20T03:03:08.746Z,30.20
2018-11-20T03:06:09.382Z,32.73
2018-11-20T03:11:36.379Z,31.43
2018-11-20T03:14:24.379Z,28.63
2018-11-20T03:16:53.344Z,36.73
2018-11-20T03:27:34.927Z,37.40
2018-11-20T03:31:02.340Z,26.13
2018-11-20T03:36:34.441Z,38.47
2018-11-20T03:57:42.757Z,38.80
2018-11-20T04:00:45.680Z,28.70
2018-11-20T04:03:32.061Z,30.10
2018-11-20T04:11:30.190Z,27.97
2018-11-20T04:14:08.215Z,39.40
2018-11-20T04:17:01.867Z,31.93
2018-11-20T04:25:09.710Z,36.57
2018-11-20T04:28:01.973Z,34.67
2018-11-20T04:31:15.678Z,28.50
2018-11-20T04:36:45.127Z,37.07
2018-11-20T04:39:26.889Z,31.87
2018-11-20T04:47:29.569Z,40.17
2018-11-20T04:50:08.767Z,36.07
2018-11-20T04:58:04.051Z,31.00
2018-11-20T05:01:07.328Z,32.83
2018-11-20T05:12:11.758Z,34.80
2018-11-20T05:22:37.893Z,36.43
2018-11-20T05:28:18.814Z,45.23
2018-11-20T05:38:44.482Z,30.87
2018-11-20T05:46:48.567Z,29.23
2018-11-20T05:54:31.541Z,32.83
2018-11-20T05:56:58.184Z,35.60
2018-11-20T06:02:02.850Z,36.50
2018-11-20T06:07:26.318Z,38.77
2018-11-20T06:10:12.648Z,34.33
2018-11-20T06:15:38.350Z,32.53
2018-11-20T06:23:37.320Z,38.57
2018-11-20T06:28:50.750Z,34.23
2018-11-20T06:34:22.616Z,33.83
2018-11-20T06:37:19.177Z,34.40
2018-11-20T06:40:22.131Z,34.37
2018-11-20T06:45:21.984Z,37.33
2018-11-20T06:48:15.610Z,37.03
2018-11-20T06:56:07.804Z,36.33
2018-11-20T06:58:53.939Z,40.57
2018-11-20T07:04:20.047Z,35.13
2018-11-20T07:09:43.017Z,40.13
2018-11-20T07:12:24.528Z,35.33
2018-11-20T07:15:25.424Z,37.63
2018-11-20T07:18:15.874Z,37.80
2018-11-20T07:21:01.924Z,38.73
2018-11-20T07:23:48.775Z,39.70
2018-11-20T07:29:23.752Z,32.37
2018-11-20T07:32:11.516Z,37.40
2018-11-20T07:37:34.411Z,38.87
2018-11-20T07:40:21.900Z,36.57
2018-11-20T07:43:08.637Z,38.23
2018-11-20T07:45:59.441Z,35.63
2018-11-20T07:48:56.296Z,47.70
2018-11-20T07:51:42.926Z,38.27
2018-11-20T07:54:36.232Z,32.70
2018-11-20T07:57:22.453Z,39.97
2018-11-20T08:00:08.843Z,44.23
2018-11-20T08:02:55.340Z,37.27
2018-11-20T08:05:46.798Z,35.43
2018-11-20T08:08:23.018Z,41.80
2018-11-20T08:11:05.793Z,34.87
2018-11-20T08:13:49.629Z,37.77
2018-11-20T08:16:35.970Z,41.47
2018-11-20T08:19:19.946Z,35.17
2018-11-20T08:22:08.253Z,35.03
2018-11-20T08:24:46.640Z,36.73
2018-11-20T08:27:51.389Z,30.97
2018-11-20T08:30:42.906Z,33.17
2018-11-20T08:33:30.229Z,35.30
2018-11-20T08:36:07.544Z,42.30
2018-11-20T08:38:55.096Z,36.03
2018-11-20T08:41:49.510Z,38.70
2018-11-20T08:44:52.018Z,41.40
2018-11-20T08:47:18.354Z,36.03
2018-11-20T08:50:02.785Z,44.20
2018-11-20T08:52:49.048Z,41.13
2018-11-20T08:55:35.174Z,38.17
2018-11-20T08:58:21.239Z,39.80
2018-11-20T09:01:26.714Z,41.00
2018-11-20T09:04:32.294Z,44.73
2018-11-20T09:07:20.485Z,44.07
2018-11-20T09:10:06.675Z,40.37
2018-11-20T09:12:54.254Z,56.20
2018-11-20T09:15:44.473Z,42.07
2018-11-20T09:18:32.278Z,36.43
2018-11-20T09:21:26.310Z,38.30
2018-11-20T09:24:19.690Z,43.90
2018-11-20T09:27:27.976Z,41.67
2018-11-20T09:30:21.616Z,39.00
2018-11-20T09:33:19.115Z,38.93
2018-11-20T09:36:06.529Z,39.53
2018-11-20T09:38:53.181Z,38.27
2018-11-20T09:44:18.964Z,37.70
2018-11-20T09:47:08.549Z,45.33
2018-11-20T09:50:15.537Z,38.40
2018-11-20T09:53:03.511Z,41.53
2018-11-20T09:55:57.187Z,37.97
2018-11-20T09:58:42.307Z,40.30
2018-11-20T10:01:32.239Z,36.77
2018-11-20T10:04:18.890Z,33.73
2018-11-20T10:07:19.197Z,42.50
2018-11-20T10:10:12.609Z,37.43
2018-11-20T10:12:54.508Z,36.90
2018-11-20T10:15:41.186Z,38.50
2018-11-20T10:18:28.485Z,40.00
2018-11-20T10:21:18.479Z,40.03
2018-11-20T10:24:06.148Z,33.97
2018-11-20T10:26:45.944Z,41.43
2018-11-20T10:29:44.893Z,39.20
2018-11-20T10:32:35.995Z,36.83
2018-11-20T10:35:24.234Z,38.53
2018-11-20T10:38:10.627Z,36.63
2018-11-20T10:41:06.870Z,40.03
2018-11-20T10:43:53.151Z,41.40
2018-11-20T10:47:40.297Z,37.70
2018-11-20T10:50:26.295Z,34.47
2018-11-20T10:53:13.337Z,38.30
2018-11-20T10:56:09.035Z,37.43
2018-11-20T10:59:02.487Z,36.97
2018-11-20T11:01:48.622Z,40.60
2018-11-20T11:04:26.270Z,40.47
2018-11-20T11:07:25.786Z,33.07
2018-11-20T11:10:09.432Z,41.40
2018-11-20T11:12:56.547Z,40.93
2018-11-20T11:15:42.309Z,36.50
2018-11-20T11:18:28.345Z,40.17
2018-11-20T11:21:21.369Z,39.03
2018-11-20T11:24:07.515Z,39.50
2018-11-20T11:26:59.781Z,43.00
2018-11-20T11:29:47.929Z,41.53
2018-11-20T11:32:33.862Z,41.33
2018-11-20T11:35:31.447Z,47.33
2018-11-20T11:38:20.238Z,38.80
2018-11-20T11:41:11.403Z,43.67
2018-11-20T11:44:02.356Z,40.50
2018-11-20T11:46:50.982Z,37.10
2018-11-20T11:49:41.075Z,40.00
2018-11-20T11:52:33.965Z,41.00
2018-11-20T11:55:20.465Z,42.00
2018-11-20T11:58:12.990Z,38.90
2018-11-20T12:01:15.512Z,41.10
2018-11-20T12:04:17.721Z,38.23
2018-11-20T12:07:16.322Z,36.17
2018-11-20T12:10:18.681Z,32.97
2018-11-20T12:13:04.260Z,36.63
2018-11-20T12:15:47.251Z,38.77
2018-11-20T12:18:22.074Z,35.40
2018-11-20T12:21:09.517Z,39.17
2018-11-20T12:24:02.277Z,34.50
2018-11-20T12:26:47.729Z,31.53
2018-11-20T12:29:34.810Z,38.00
2018-11-20T12:32:28.871Z,31.20
2018-11-20T12:35:33.526Z,34.40
2018-11-20T12:38:22.713Z,32.87
2018-11-20T12:41:12.613Z,31.40
2018-11-20T12:44:05.927Z,26.20
2018-11-20T12:50:11.517Z,18.53
2018-11-20T12:53:02.519Z,19.70
2018-11-20T12:55:49.016Z,18.73
2018-11-20T12:58:45.300Z,18.17
2018-11-20T13:01:22.699Z,17.23
2018-11-20T13:04:22.492Z,16.87
2018-11-20T13:07:05.478Z,21.57
2018-11-20T13:10:10.597Z,15.30
2018-11-20T13:13:05.407Z,15.73
2018-11-20T13:15:53.460Z,17.73
2018-11-20T13:18:54.316Z,21.60
2018-11-20T13:21:31.059Z,22.17
2018-11-20T13:24:13.624Z,18.70
2018-11-20T13:26:57.715Z,19.93
2018-11-20T13:29:43.440Z,20.40
2018-11-20T13:32:23.949Z,21.33
2018-11-20T13:35:02.720Z,21.30
2018-11-20T13:38:03.467Z,19.13
2018-11-20T13:41:27.432Z,17.80
2018-11-20T13:44:07.111Z,18.80
2018-11-20T13:46:52.360Z,17.80
2018-11-20T13:49:45.933Z,22.10
2018-11-20T13:52:29.232Z,20.47
2018-11-20T13:55:18.669Z,20.20
2018-11-20T13:58:08.004Z,19.10
2018-11-20T14:00:57.478Z,20.00
2018-11-20T14:03:55.705Z,23.37
2018-11-20T14:06:42.824Z,22.47
2018-11-20T14:09:36.804Z,26.27
2018-11-20T14:12:39.472Z,23.03
2018-11-20T14:15:26.915Z,27.80
2018-11-20T14:18:17.110Z,22.90
2018-11-20T14:21:02.739Z,28.03
2018-11-20T14:24:03.009Z,24.07
2018-11-20T14:26:51.524Z,21.17
2018-11-20T14:29:42.425Z,25.43
2018-11-20T14:32:29.282Z,28.17
2018-11-20T14:35:34.455Z,27.67
2018-11-20T14:38:33.555Z,27.77
2018-11-20T14:41:11.297Z,36.17
2018-11-20T14:44:10.776Z,27.87
2018-11-20T14:47:07.848Z,33.90
2018-11-20T14:49:54.106Z,27.87
2018-11-20T14:52:41.621Z,25.70
2018-11-20T14:55:32.076Z,28.60
2018-11-20T14:58:21.783Z,26.60
2018-11-20T15:01:16.516Z,32.90
2018-11-20T15:04:06.748Z,29.73
2018-11-20T15:06:53.534Z,38.00
2018-11-20T15:09:43.326Z,34.77
2018-11-20T15:12:28.543Z,29.23
2018-11-20T15:15:24.357Z,33.93
2018-11-20T15:18:20.067Z,32.53
2018-11-20T15:21:26.583Z,33.30
2018-11-20T15:24:33.661Z,77.53
2018-11-20T15:27:32.375Z,31.33
2018-11-20T15:30:18.336Z,35.43
2018-11-20T15:33:12.336Z,26.97
2018-11-20T15:36:05.438Z,29.67
2018-11-20T15:38:55.086Z,50.77
2018-11-20T15:41:57.933Z,34.57
2018-11-20T15:44:48.715Z,44.00
2018-11-20T15:47:38.583Z,42.27
2018-11-20T15:50:36.563Z,36.57
2018-11-20T15:53:23.758Z,36.13
2018-11-20T15:56:10.521Z,35.20
2018-11-20T15:58:57.847Z,35.77
2018-11-20T16:01:40.066Z,34.27
2018-11-20T16:04:32.622Z,32.70
2018-11-20T16:07:11.209Z,40.40
2018-11-20T16:10:10.111Z,42.00
2018-11-20T16:12:57.844Z,38.80
2018-11-20T16:15:43.403Z,32.27
2018-11-20T16:18:28.745Z,34.47
2018-11-20T16:21:13.880Z,40.17
2018-11-20T16:23:59.604Z,29.30
2018-11-20T16:26:43.716Z,33.70
2018-11-20T16:29:32.219Z,38.00
2018-11-20T16:32:19.425Z,32.10
2018-11-20T16:35:22.199Z,34.83
2018-11-20T16:38:24.830Z,32.23
2018-11-20T16:41:11.611Z,33.50
2018-11-20T16:43:53.115Z,33.30
2018-11-20T16:46:39.018Z,35.63
2018-11-20T16:49:24.184Z,29.83
2018-11-20T16:52:23.357Z,38.50
2018-11-20T16:55:20.926Z,34.60
2018-11-20T16:58:11.022Z,32.63
2018-11-20T17:01:09.844Z,39.43
2018-11-20T17:03:59.182Z,34.03
2018-11-20T17:06:35.892Z,32.13
2018-11-20T17:09:23.567Z,37.37
2018-11-20T17:12:11.659Z,27.73
2018-11-20T17:15:04.112Z,34.90
2018-11-20T17:17:52.051Z,35.53
2018-11-20T17:20:42.071Z,31.90
2018-11-20T17:23:29.019Z,34.20
2018-11-20T17:26:22.922Z,32.13
2018-11-20T17:29:12.673Z,34.50
2018-11-20T17:32:02.536Z,33.23
2018-11-20T17:34:52.542Z,36.33
2018-11-20T17:37:37.918Z,54.40
2018-11-20T17:40:44.224Z,39.93
2018-11-20T17:43:29.431Z,38.50
2018-11-20T17:49:27.881Z,33.90
2018-11-20T17:52:38.445Z,34.07
2018-11-20T17:55:23.608Z,37.83
2018-11-20T17:58:10.492Z,40.70
2018-11-20T18:00:57.335Z,35.13
2018-11-20T18:03:33.889Z,35.57
2018-11-20T18:09:00.625Z,35.03
2018-11-20T18:11:50.814Z,40.83
2018-11-20T18:14:42.100Z,33.50
2018-11-20T18:17:27.450Z,36.23
2018-11-20T18:20:13.651Z,39.23
2018-11-20T18:23:03.537Z,33.87
2018-11-20T18:26:02.159Z,34.47
2018-11-20T18:28:49.907Z,38.97
2018-11-20T18:31:45.617Z,37.77
2018-11-20T18:34:31.101Z,32.03
2018-11-20T18:37:18.881Z,32.83
2018-11-20T18:39:55.796Z,29.20
2018-11-20T18:42:48.581Z,33.07
2018-11-20T18:45:41.451Z,33.40
2018-11-20T18:48:34.476Z,37.83
2018-11-20T18:51:35.870Z,33.03
2018-11-20T18:57:15.932Z,31.40
2018-11-20T18:59:56.880Z,30.30
2018-11-20T19:03:09.118Z,33.20
2018-11-20T19:06:20.147Z,32.10
2018-11-20T19:09:06.151Z,30.53
2018-11-20T19:11:51.918Z,27.63
2018-11-20T19:14:45.462Z,27.60
2018-11-20T19:17:37.943Z,30.50
2018-11-20T19:20:31.221Z,43.90
2018-11-20T19:23:31.905Z,38.73
2018-11-20T19:26:20.326Z,43.30
2018-11-20T19:29:13.380Z,37.17
2018-11-20T19:31:58.934Z,30.57
2018-11-20T19:35:02.421Z,29.13
2018-11-20T19:37:51.479Z,31.37
2018-11-20T19:41:01.655Z,33.00
2018-11-20T19:43:47.414Z,31.43
2018-11-20T19:46:41.509Z,32.27
2018-11-20T19:49:40.331Z,28.57
2018-11-20T19:52:25.963Z,31.37
2018-11-20T19:55:25.353Z,33.87
2018-11-20T19:58:30.903Z,31.10
2018-11-20T20:01:17.936Z,29.20
2018-11-20T20:04:10.890Z,34.30
2018-11-20T20:07:13.896Z,33.47
2018-11-20T20:09:59.988Z,35.20
2018-11-20T20:13:17.719Z,29.47
2018-11-20T20:15:49.330Z,29.13
2018-11-20T20:18:39.556Z,29.80
2018-11-20T20:21:33.658Z,27.60
2018-11-20T20:24:13.616Z,28.90
2018-11-20T20:27:02.158Z,28.70
2018-11-20T20:29:49.083Z,25.87
2018-11-20T20:32:27.437Z,23.10
2018-11-20T20:35:20.074Z,30.40
2018-11-20T20:38:12.567Z,26.23
2018-11-20T20:41:06.059Z,25.63
2018-11-20T20:43:51.491Z,30.87
2018-11-20T20:46:37.610Z,25.43
2018-11-20T20:49:42.944Z,28.13
2018-11-20T20:52:40.176Z,23.97
2018-11-20T20:55:49.143Z,30.93
2018-11-20T20:58:40.099Z,30.00
2018-11-20T21:01:28.577Z,23.50
2018-11-20T21:07:22.049Z,29.40
2018-11-20T21:10:38.767Z,28.37
2018-11-20T21:14:13.710Z,27.70
2018-11-20T21:17:50.334Z,33.50
2018-11-20T21:27:25.856Z,30.30
2018-11-20T21:30:31.497Z,30.20
2018-11-20T21:33:35.106Z,30.27
2018-11-20T21:39:06.500Z,27.10
2018-11-20T21:42:08.683Z,30.90
2018-11-20T21:44:54.269Z,30.43
2018-11-20T21:47:50.731Z,22.77
2018-11-20T21:50:36.864Z,33.47
2018-11-20T21:53:29.472Z,29.97
2018-11-20T21:56:30.062Z,35.47
2018-11-20T21:59:18.455Z,28.07
2018-11-20T22:02:16.125Z,28.13
2018-11-20T22:05:19.899Z,32.23
2018-11-20T22:08:04.726Z,30.43
2018-11-20T22:10:58.601Z,28.10
2018-11-20T22:14:04.418Z,30.50
2018-11-20T22:16:57.022Z,30.87
2018-11-20T22:20:02.086Z,25.80
2018-11-20T22:22:47.497Z,27.97
2018-11-20T22:25:50.909Z,31.73
2018-11-20T22:28:44.123Z,27.33
2018-11-20T22:31:30.254Z,24.27
2018-11-20T22:34:36.998Z,34.40
2018-11-20T22:37:23.017Z,36.30
2018-11-20T22:40:08.333Z,32.97
2018-11-20T22:43:04.380Z,27.17
2018-11-20T22:45:49.661Z,28.03
2018-11-20T22:48:45.686Z,30.63
2018-11-20T22:51:42.137Z,29.50
2018-11-20T22:54:22.069Z,31.33
2018-11-20T22:57:24.409Z,29.30
2018-11-20T23:00:10.136Z,26.73
2018-11-20T23:03:13.303Z,28.00
2018-11-20T23:06:04.308Z,31.40
2018-11-20T23:08:32.713Z,30.10
2018-11-20T23:11:00.326Z,34.60
2018-11-20T23:13:29.407Z,29.33
2018-11-20T23:15:57.799Z,30.00
2018-11-20T23:18:25.724Z,31.10
2018-11-20T23:20:57.293Z,24.37
2018-11-20T23:23:27.005Z,24.23
2018-11-20T23:25:55.677Z,26.80
2018-11-20T23:28:27.454Z,27.97
2018-11-20T23:31:06.005Z,23.37
2018-11-20T23:33:36.129Z,28.27
2018-11-20T23:36:04.277Z,29.13
2018-11-20T23:38:31.803Z,27.63
2018-11-20T23:41:01.298Z,25.20
2018-11-20T23:46:19.275Z,26.13
2018-11-20T23:49:15.236Z,25.50
2018-11-20T23:51:39.899Z,27.47
2018-11-20T23:54:10.328Z,29.37
2018-11-20T23:56:38.298Z,33.97
2018-11-20T23:59:08.235Z,25.77
